sensor_id;sensor_type;location;lat;lon;timestamp;temperature;humidity
38436;DHT22;24220;48.168;14.024;2023-03-01T00:01:56;7.90;50.70
38436;DHT22;24220;48.168;14.024;2023-03-01T00:04:23;7.90;50.80
38436;DHT22;24220;48.168;14.024;2023-03-01T00:06:54;7.80;50.90
38436;DHT22;24220;48.168;14.024;2023-03-01T00:09:21;7.80;50.90
38436;DHT22;24220;48.168;14.024;2023-03-01T00:11:49;7.80;50.90
38436;DHT22;24220;48.168;14.024;2023-03-01T00:14:19;7.80;51.10
38436;DHT22;24220;48.168;14.024;2023-03-01T00:16:46;7.80;51.00
38436;DHT22;24220;48.168;14.024;2023-03-01T00:19:16;7.70;51.00
38436;DHT22;24220;48.168;14.024;2023-03-01T00:21:46;7.70;51.10
38436;DHT22;24220;48.168;14.024;2023-03-01T00:24:14;7.60;51.10
38436;DHT22;24220;48.168;14.024;2023-03-01T00:26:44;7.60;51.30
38436;DHT22;24220;48.168;14.024;2023-03-01T00:29:12;7.60;51.40
38436;DHT22;24220;48.168;14.024;2023-03-01T00:31:42;7.60;51.50
38436;DHT22;24220;48.168;14.024;2023-03-01T00:34:14;7.50;51.50
38436;DHT22;24220;48.168;14.024;2023-03-01T00:36:44;7.50;51.50
38436;DHT22;24220;48.168;14.024;2023-03-01T00:39:17;7.50;51.70
38436;DHT22;24220;48.168;14.024;2023-03-01T00:41:49;7.50;51.70
38436;DHT22;24220;48.168;14.024;2023-03-01T00:44:16;7.40;51.80
38436;DHT22;24220;48.168;14.024;2023-03-01T00:46:44;7.40;51.90
38436;DHT22;24220;48.168;14.024;2023-03-01T00:49:11;7.40;51.90
38436;DHT22;24220;48.168;14.024;2023-03-01T00:51:41;7.40;51.80
38436;DHT22;24220;48.168;14.024;2023-03-01T00:54:15;7.40;51.80
38436;DHT22;24220;48.168;14.024;2023-03-01T00:56:45;7.40;51.90
38436;DHT22;24220;48.168;14.024;2023-03-01T00:59:17;7.40;51.90
38436;DHT22;24220;48.168;14.024;2023-03-01T01:01:50;7.40;51.90
38436;DHT22;24220;48.168;14.024;2023-03-01T01:04:23;7.30;51.90
38436;DHT22;24220;48.168;14.024;2023-03-01T01:06:55;7.40;52.10
38436;DHT22;24220;48.168;14.024;2023-03-01T01:09:25;7.30;52.10
38436;DHT22;24220;48.168;14.024;2023-03-01T01:11:52;7.30;52.00
38436;DHT22;24220;48.168;14.024;2023-03-01T01:14:24;7.30;52.20
38436;DHT22;24220;48.168;14.024;2023-03-01T01:16:54;7.30;52.10
38436;DHT22;24220;48.168;14.024;2023-03-01T01:19:24;7.30;52.40
38436;DHT22;24220;48.168;14.024;2023-03-01T01:21:57;7.20;52.00
38436;DHT22;24220;48.168;14.024;2023-03-01T01:24:24;7.20;52.10
38436;DHT22;24220;48.168;14.024;2023-03-01T01:26:52;7.20;52.20
38436;DHT22;24220;48.168;14.024;2023-03-01T01:29:19;7.20;52.40
38436;DHT22;24220;48.168;14.024;2023-03-01T01:31:49;7.20;52.50
38436;DHT22;24220;48.168;14.024;2023-03-01T01:34:19;7.10;52.30
38436;DHT22;24220;48.168;14.024;2023-03-01T01:36:52;7.10;52.10
38436;DHT22;24220;48.168;14.024;2023-03-01T01:39:29;7.10;52.10
38436;DHT22;24220;48.168;14.024;2023-03-01T01:42:04;7.10;52.20
38436;DHT22;24220;48.168;14.024;2023-03-01T01:44:37;7.20;52.10
38436;DHT22;24220;48.168;14.024;2023-03-01T01:47:07;7.10;52.10
38436;DHT22;24220;48.168;14.024;2023-03-01T01:49:47;7.20;52.10
38436;DHT22;24220;48.168;14.024;2023-03-01T02:00:10;7.20;51.70
38436;DHT22;24220;48.168;14.024;2023-03-01T02:02:38;7.10;51.80
38436;DHT22;24220;48.168;14.024;2023-03-01T02:07:59;7.10;51.80
38436;DHT22;24220;48.168;14.024;2023-03-01T02:10:28;7.20;52.30
38436;DHT22;24220;48.168;14.024;2023-03-01T02:12:58;7.20;51.80
38436;DHT22;24220;48.168;14.024;2023-03-01T02:15:34;7.20;51.90
38436;DHT22;24220;48.168;14.024;2023-03-01T02:18:03;7.10;51.60
38436;DHT22;24220;48.168;14.024;2023-03-01T02:23:23;7.10;51.70
38436;DHT22;24220;48.168;14.024;2023-03-01T02:28:35;7.10;51.70
38436;DHT22;24220;48.168;14.024;2023-03-01T02:31:06;7.10;51.70
38436;DHT22;24220;48.168;14.024;2023-03-01T02:33:53;7.20;51.90
38436;DHT22;24220;48.168;14.024;2023-03-01T02:36:26;7.20;51.70
38436;DHT22;24220;48.168;14.024;2023-03-01T02:38:58;7.10;51.60
38436;DHT22;24220;48.168;14.024;2023-03-01T02:41:35;7.20;51.70
38436;DHT22;24220;48.168;14.024;2023-03-01T02:44:05;7.20;51.60
38436;DHT22;24220;48.168;14.024;2023-03-01T02:46:41;7.10;51.50
38436;DHT22;24220;48.168;14.024;2023-03-01T02:49:30;7.10;51.50
38436;DHT22;24220;48.168;14.024;2023-03-01T02:52:12;7.10;51.70
38436;DHT22;24220;48.168;14.024;2023-03-01T02:57:32;7.10;51.70
38436;DHT22;24220;48.168;14.024;2023-03-01T03:00:08;7.10;51.80
38436;DHT22;24220;48.168;14.024;2023-03-01T03:02:55;7.10;51.90
38436;DHT22;24220;48.168;14.024;2023-03-01T03:05:30;7.10;51.70
38436;DHT22;24220;48.168;14.024;2023-03-01T03:08:02;7.10;51.70
38436;DHT22;24220;48.168;14.024;2023-03-01T03:10:34;7.10;51.80
38436;DHT22;24220;48.168;14.024;2023-03-01T03:13:05;7.00;51.60
38436;DHT22;24220;48.168;14.024;2023-03-01T03:15:37;7.10;51.60
38436;DHT22;24220;48.168;14.024;2023-03-01T03:18:12;7.10;51.60
38436;DHT22;24220;48.168;14.024;2023-03-01T03:20:43;7.00;51.50
38436;DHT22;24220;48.168;14.024;2023-03-01T03:23:11;7.00;51.60
38436;DHT22;24220;48.168;14.024;2023-03-01T03:25:39;7.00;51.70
38436;DHT22;24220;48.168;14.024;2023-03-01T03:28:07;7.00;51.80
38436;DHT22;24220;48.168;14.024;2023-03-01T03:30:39;7.00;51.70
38436;DHT22;24220;48.168;14.024;2023-03-01T03:33:09;7.00;51.80
38436;DHT22;24220;48.168;14.024;2023-03-01T03:35:41;7.00;51.70
38436;DHT22;24220;48.168;14.024;2023-03-01T03:38:13;7.00;51.90
38436;DHT22;24220;48.168;14.024;2023-03-01T03:40:46;7.00;52.10
38436;DHT22;24220;48.168;14.024;2023-03-01T03:43:18;7.00;51.70
38436;DHT22;24220;48.168;14.024;2023-03-01T03:45:46;7.00;51.80
38436;DHT22;24220;48.168;14.024;2023-03-01T03:48:16;6.90;51.60
38436;DHT22;24220;48.168;14.024;2023-03-01T03:50:50;6.90;51.70
38436;DHT22;24220;48.168;14.024;2023-03-01T03:53:22;6.90;51.80
38436;DHT22;24220;48.168;14.024;2023-03-01T03:55:54;6.90;51.90
38436;DHT22;24220;48.168;14.024;2023-03-01T03:58:24;6.90;51.90
38436;DHT22;24220;48.168;14.024;2023-03-01T04:00:58;6.90;51.90
38436;DHT22;24220;48.168;14.024;2023-03-01T04:03:26;6.80;51.90
38436;DHT22;24220;48.168;14.024;2023-03-01T04:05:56;6.80;52.10
38436;DHT22;24220;48.168;14.024;2023-03-01T04:08:26;6.80;52.10
38436;DHT22;24220;48.168;14.024;2023-03-01T04:11:00;6.80;52.00
38436;DHT22;24220;48.168;14.024;2023-03-01T04:13:48;6.80;52.00
38436;DHT22;24220;48.168;14.024;2023-03-01T04:16:16;6.80;52.00
38436;DHT22;24220;48.168;14.024;2023-03-01T04:18:49;6.70;51.90
38436;DHT22;24220;48.168;14.024;2023-03-01T04:21:19;6.70;52.00
38436;DHT22;24220;48.168;14.024;2023-03-01T04:23:47;6.70;52.10
38436;DHT22;24220;48.168;14.024;2023-03-01T04:26:15;6.70;52.10
38436;DHT22;24220;48.168;14.024;2023-03-01T04:28:42;6.70;52.20
38436;DHT22;24220;48.168;14.024;2023-03-01T04:31:15;6.70;52.20
38436;DHT22;24220;48.168;14.024;2023-03-01T04:33:54;6.60;52.20
38436;DHT22;24220;48.168;14.024;2023-03-01T04:36:28;6.60;52.30
38436;DHT22;24220;48.168;14.024;2023-03-01T04:38:59;6.60;52.30
38436;DHT22;24220;48.168;14.024;2023-03-01T04:41:31;6.60;52.20
38436;DHT22;24220;48.168;14.024;2023-03-01T04:44:00;6.60;52.20
38436;DHT22;24220;48.168;14.024;2023-03-01T04:46:30;6.60;52.20
38436;DHT22;24220;48.168;14.024;2023-03-01T04:49:02;6.50;52.30
38436;DHT22;24220;48.168;14.024;2023-03-01T04:51:36;6.50;52.30
38436;DHT22;24220;48.168;14.024;2023-03-01T04:54:06;6.50;52.40
38436;DHT22;24220;48.168;14.024;2023-03-01T04:56:35;6.40;52.50
38436;DHT22;24220;48.168;14.024;2023-03-01T04:59:05;6.50;52.50
38436;DHT22;24220;48.168;14.024;2023-03-01T05:01:39;6.50;52.60
38436;DHT22;24220;48.168;14.024;2023-03-01T05:04:12;6.40;52.50
38436;DHT22;24220;48.168;14.024;2023-03-01T05:06:40;6.40;52.60
38436;DHT22;24220;48.168;14.024;2023-03-01T05:09:10;6.40;52.50
38436;DHT22;24220;48.168;14.024;2023-03-01T05:11:38;6.40;52.60
38436;DHT22;24220;48.168;14.024;2023-03-01T05:14:08;6.40;52.60
38436;DHT22;24220;48.168;14.024;2023-03-01T05:16:36;6.40;52.70
38436;DHT22;24220;48.168;14.024;2023-03-01T05:19:06;6.30;52.60
38436;DHT22;24220;48.168;14.024;2023-03-01T05:21:45;6.30;52.70
38436;DHT22;24220;48.168;14.024;2023-03-01T05:24:38;6.30;52.70
38436;DHT22;24220;48.168;14.024;2023-03-01T05:27:08;6.30;52.70
38436;DHT22;24220;48.168;14.024;2023-03-01T05:29:39;6.30;52.70
38436;DHT22;24220;48.168;14.024;2023-03-01T05:32:07;6.30;52.70
38436;DHT22;24220;48.168;14.024;2023-03-01T05:34:39;6.30;52.90
38436;DHT22;24220;48.168;14.024;2023-03-01T05:37:07;6.30;52.90
38436;DHT22;24220;48.168;14.024;2023-03-01T05:39:40;6.30;52.80
38436;DHT22;24220;48.168;14.024;2023-03-01T05:42:11;6.30;52.80
38436;DHT22;24220;48.168;14.024;2023-03-01T05:44:39;6.30;52.90
38436;DHT22;24220;48.168;14.024;2023-03-01T05:47:14;6.30;52.90
38436;DHT22;24220;48.168;14.024;2023-03-01T05:49:42;6.30;53.00
38436;DHT22;24220;48.168;14.024;2023-03-01T05:52:09;6.30;52.90
38436;DHT22;24220;48.168;14.024;2023-03-01T05:54:43;6.30;52.80
38436;DHT22;24220;48.168;14.024;2023-03-01T05:57:11;6.30;52.80
38436;DHT22;24220;48.168;14.024;2023-03-01T05:59:41;6.30;52.80
38436;DHT22;24220;48.168;14.024;2023-03-01T06:02:11;6.30;52.90
38436;DHT22;24220;48.168;14.024;2023-03-01T06:04:38;6.30;52.90
38436;DHT22;24220;48.168;14.024;2023-03-01T06:07:06;6.30;52.90
38436;DHT22;24220;48.168;14.024;2023-03-01T06:09:36;6.30;52.90
38436;DHT22;24220;48.168;14.024;2023-03-01T06:12:06;6.30;52.90
38436;DHT22;24220;48.168;14.024;2023-03-01T06:14:36;6.30;52.90
38436;DHT22;24220;48.168;14.024;2023-03-01T06:17:07;6.30;52.90
38436;DHT22;24220;48.168;14.024;2023-03-01T06:19:35;6.20;52.80
38436;DHT22;24220;48.168;14.024;2023-03-01T06:22:07;6.30;53.00
38436;DHT22;24220;48.168;14.024;2023-03-01T06:24:37;6.30;52.90
38436;DHT22;24220;48.168;14.024;2023-03-01T06:27:10;6.30;53.10
38436;DHT22;24220;48.168;14.024;2023-03-01T06:29:37;6.30;53.10
38436;DHT22;24220;48.168;14.024;2023-03-01T06:32:08;6.30;53.20
38436;DHT22;24220;48.168;14.024;2023-03-01T06:34:37;6.30;53.20
38436;DHT22;24220;48.168;14.024;2023-03-01T06:37:06;6.30;53.10
38436;DHT22;24220;48.168;14.024;2023-03-01T06:39:36;6.30;53.10
38436;DHT22;24220;48.168;14.024;2023-03-01T06:42:07;6.40;53.20
38436;DHT22;24220;48.168;14.024;2023-03-01T06:44:36;6.40;53.30
38436;DHT22;24220;48.168;14.024;2023-03-01T06:47:07;6.40;53.20
38436;DHT22;24220;48.168;14.024;2023-03-01T06:49:37;6.40;53.20
38436;DHT22;24220;48.168;14.024;2023-03-01T06:52:04;6.40;53.10
38436;DHT22;24220;48.168;14.024;2023-03-01T06:54:39;6.40;53.00
38436;DHT22;24220;48.168;14.024;2023-03-01T06:57:07;6.40;53.00
38436;DHT22;24220;48.168;14.024;2023-03-01T06:59:40;6.50;53.10
38436;DHT22;24220;48.168;14.024;2023-03-01T07:02:15;6.50;53.10
38436;DHT22;24220;48.168;14.024;2023-03-01T07:04:45;6.50;53.30
38436;DHT22;24220;48.168;14.024;2023-03-01T07:07:13;6.50;53.00
38436;DHT22;24220;48.168;14.024;2023-03-01T07:09:40;6.50;53.10
38436;DHT22;24220;48.168;14.024;2023-03-01T07:12:08;6.50;53.20
38436;DHT22;24220;48.168;14.024;2023-03-01T07:14:35;6.50;53.10
38436;DHT22;24220;48.168;14.024;2023-03-01T07:17:03;6.60;53.20
38436;DHT22;24220;48.168;14.024;2023-03-01T07:19:30;6.60;53.00
38436;DHT22;24220;48.168;14.024;2023-03-01T07:22:01;6.70;53.10
38436;DHT22;24220;48.168;14.024;2023-03-01T07:24:31;6.70;53.30
38436;DHT22;24220;48.168;14.024;2023-03-01T07:27:01;6.80;53.40
38436;DHT22;24220;48.168;14.024;2023-03-01T07:29:31;6.80;53.20
38436;DHT22;24220;48.168;14.024;2023-03-01T07:31:58;6.90;53.00
38436;DHT22;24220;48.168;14.024;2023-03-01T07:34:31;7.00;53.20
38436;DHT22;24220;48.168;14.024;2023-03-01T07:37:04;7.10;53.10
38436;DHT22;24220;48.168;14.024;2023-03-01T07:39:32;7.20;53.10
38436;DHT22;24220;48.168;14.024;2023-03-01T07:41:59;7.30;52.80
38436;DHT22;24220;48.168;14.024;2023-03-01T07:44:30;7.40;52.50
38436;DHT22;24220;48.168;14.024;2023-03-01T07:46:58;7.50;52.50
38436;DHT22;24220;48.168;14.024;2023-03-01T07:49:28;7.60;52.50
38436;DHT22;24220;48.168;14.024;2023-03-01T07:51:58;7.60;52.20
38436;DHT22;24220;48.168;14.024;2023-03-01T07:54:26;7.70;51.90
38436;DHT22;24220;48.168;14.024;2023-03-01T07:56:54;7.80;51.90
38436;DHT22;24220;48.168;14.024;2023-03-01T07:59:22;7.90;51.80
38436;DHT22;24220;48.168;14.024;2023-03-01T08:01:56;7.90;51.70
38436;DHT22;24220;48.168;14.024;2023-03-01T08:04:24;8.00;51.70
38436;DHT22;24220;48.168;14.024;2023-03-01T08:06:54;8.10;51.70
38436;DHT22;24220;48.168;14.024;2023-03-01T08:09:28;8.20;51.50
38436;DHT22;24220;48.168;14.024;2023-03-01T08:11:56;8.30;51.30
38436;DHT22;24220;48.168;14.024;2023-03-01T08:14:26;8.30;51.50
38436;DHT22;24220;48.168;14.024;2023-03-01T08:16:54;8.40;51.60
38436;DHT22;24220;48.168;14.024;2023-03-01T08:19:24;8.50;51.50
38436;DHT22;24220;48.168;14.024;2023-03-01T08:21:55;8.60;51.20
38436;DHT22;24220;48.168;14.024;2023-03-01T08:24:28;8.70;51.20
38436;DHT22;24220;48.168;14.024;2023-03-01T08:26:58;8.70;51.20
38436;DHT22;24220;48.168;14.024;2023-03-01T08:29:26;8.80;50.90
38436;DHT22;24220;48.168;14.024;2023-03-01T08:31:53;8.90;50.70
38436;DHT22;24220;48.168;14.024;2023-03-01T08:34:21;9.00;50.40
38436;DHT22;24220;48.168;14.024;2023-03-01T08:36:49;9.00;50.50
38436;DHT22;24220;48.168;14.024;2023-03-01T08:39:21;9.10;50.50
38436;DHT22;24220;48.168;14.024;2023-03-01T08:41:51;9.10;50.50
38436;DHT22;24220;48.168;14.024;2023-03-01T08:44:19;9.30;50.30
38436;DHT22;24220;48.168;14.024;2023-03-01T08:46:50;9.20;50.00
38436;DHT22;24220;48.168;14.024;2023-03-01T08:49:20;9.30;49.80
38436;DHT22;24220;48.168;14.024;2023-03-01T08:51:50;9.40;49.90
38436;DHT22;24220;48.168;14.024;2023-03-01T08:54:21;9.40;49.60
38436;DHT22;24220;48.168;14.024;2023-03-01T08:56:49;9.40;49.40
38436;DHT22;24220;48.168;14.024;2023-03-01T08:59:18;9.50;49.20
38436;DHT22;24220;48.168;14.024;2023-03-01T09:01:46;9.50;49.00
38436;DHT22;24220;48.168;14.024;2023-03-01T09:04:14;9.50;48.90
38436;DHT22;24220;48.168;14.024;2023-03-01T09:06:43;9.50;49.00
38436;DHT22;24220;48.168;14.024;2023-03-01T09:09:14;9.60;49.00
38436;DHT22;24220;48.168;14.024;2023-03-01T09:11:44;9.60;48.90
38436;DHT22;24220;48.168;14.024;2023-03-01T09:14:14;9.60;48.70
38436;DHT22;24220;48.168;14.024;2023-03-01T09:16:42;9.70;49.00
38436;DHT22;24220;48.168;14.024;2023-03-01T09:19:09;9.70;49.10
38436;DHT22;24220;48.168;14.024;2023-03-01T09:21:40;9.80;49.20
38436;DHT22;24220;48.168;14.024;2023-03-01T09:24:14;9.80;48.90
38436;DHT22;24220;48.168;14.024;2023-03-01T09:26:42;9.90;49.00
38436;DHT22;24220;48.168;14.024;2023-03-01T09:29:16;10.00;48.80
38436;DHT22;24220;48.168;14.024;2023-03-01T09:31:44;10.00;48.80
38436;DHT22;24220;48.168;14.024;2023-03-01T09:34:16;10.10;48.60
38436;DHT22;24220;48.168;14.024;2023-03-01T09:36:46;10.10;48.60
38436;DHT22;24220;48.168;14.024;2023-03-01T09:39:16;10.20;49.00
38436;DHT22;24220;48.168;14.024;2023-03-01T09:41:49;10.30;48.90
38436;DHT22;24220;48.168;14.024;2023-03-01T09:46:59;10.40;48.40
38436;DHT22;24220;48.168;14.024;2023-03-01T09:49:41;10.40;48.40
38436;DHT22;24220;48.168;14.024;2023-03-01T09:54:59;10.50;48.30
38436;DHT22;24220;48.168;14.024;2023-03-01T10:00:30;10.50;47.70
38436;DHT22;24220;48.168;14.024;2023-03-01T10:03:20;10.50;47.70
38436;DHT22;24220;48.168;14.024;2023-03-01T10:08:38;10.60;48.60
38436;DHT22;24220;48.168;14.024;2023-03-01T10:14:15;10.70;48.60
38436;DHT22;24220;48.168;14.024;2023-03-01T10:17:15;10.80;48.70
38436;DHT22;24220;48.168;14.024;2023-03-01T10:19:49;10.80;48.10
38436;DHT22;24220;48.168;14.024;2023-03-01T10:22:23;10.90;47.80
38436;DHT22;24220;48.168;14.024;2023-03-01T10:24:59;10.90;48.00
38436;DHT22;24220;48.168;14.024;2023-03-01T10:27:52;10.90;48.40
38436;DHT22;24220;48.168;14.024;2023-03-01T10:33:14;11.00;48.30
38436;DHT22;24220;48.168;14.024;2023-03-01T10:35:44;11.00;48.80
38436;DHT22;24220;48.168;14.024;2023-03-01T10:38:16;11.10;48.90
38436;DHT22;24220;48.168;14.024;2023-03-01T10:40:55;11.10;48.90
38436;DHT22;24220;48.168;14.024;2023-03-01T10:43:30;11.20;47.80
38436;DHT22;24220;48.168;14.024;2023-03-01T10:46:02;11.20;48.20
38436;DHT22;24220;48.168;14.024;2023-03-01T10:48:32;11.30;48.70
38436;DHT22;24220;48.168;14.024;2023-03-01T10:53:33;11.50;48.20
38436;DHT22;24220;48.168;14.024;2023-03-01T10:56:12;11.50;48.80
38436;DHT22;24220;48.168;14.024;2023-03-01T10:59:04;11.60;48.70
38436;DHT22;24220;48.168;14.024;2023-03-01T11:01:34;11.70;49.10
38436;DHT22;24220;48.168;14.024;2023-03-01T11:06:38;11.80;48.40
38436;DHT22;24220;48.168;14.024;2023-03-01T11:09:21;11.80;48.00
38436;DHT22;24220;48.168;14.024;2023-03-01T11:12:11;11.90;48.50
38436;DHT22;24220;48.168;14.024;2023-03-01T11:15:04;11.90;48.70
38436;DHT22;24220;48.168;14.024;2023-03-01T11:17:35;12.00;49.00
38436;DHT22;24220;48.168;14.024;2023-03-01T11:20:40;12.00;48.50
38436;DHT22;24220;48.168;14.024;2023-03-01T11:23:14;12.10;48.10
38436;DHT22;24220;48.168;14.024;2023-03-01T11:26:18;12.10;47.80
38436;DHT22;24220;48.168;14.024;2023-03-01T11:28:51;12.10;47.80
38436;DHT22;24220;48.168;14.024;2023-03-01T11:31:23;12.20;48.20
38436;DHT22;24220;48.168;14.024;2023-03-01T11:34:02;12.20;48.10
38436;DHT22;24220;48.168;14.024;2023-03-01T11:36:52;12.20;48.30
38436;DHT22;24220;48.168;14.024;2023-03-01T11:39:25;12.30;48.90
38436;DHT22;24220;48.168;14.024;2023-03-01T11:42:00;12.30;48.50
38436;DHT22;24220;48.168;14.024;2023-03-01T11:44:46;12.40;49.10
38436;DHT22;24220;48.168;14.024;2023-03-01T11:56:31;12.60;49.30
38436;DHT22;24220;48.168;14.024;2023-03-01T12:01:59;12.60;48.70
38436;DHT22;24220;48.168;14.024;2023-03-01T12:29:38;13.00;48.60
38436;DHT22;24220;48.168;14.024;2023-03-01T12:35:43;13.00;49.80
38436;DHT22;24220;48.168;14.024;2023-03-01T12:46:46;13.20;49.00
38436;DHT22;24220;48.168;14.024;2023-03-01T12:49:38;13.20;48.70
38436;DHT22;24220;48.168;14.024;2023-03-01T12:52:19;13.30;48.80
38436;DHT22;24220;48.168;14.024;2023-03-01T12:54:51;13.30;49.10
38436;DHT22;24220;48.168;14.024;2023-03-01T12:57:23;13.30;49.00
38436;DHT22;24220;48.168;14.024;2023-03-01T13:02:41;13.30;48.90
38436;DHT22;24220;48.168;14.024;2023-03-01T13:08:29;13.20;48.80
38436;DHT22;24220;48.168;14.024;2023-03-01T13:11:05;13.20;48.50
38436;DHT22;24220;48.168;14.024;2023-03-01T13:13:33;13.20;48.80
38436;DHT22;24220;48.168;14.024;2023-03-01T13:19:19;13.10;48.70
38436;DHT22;24220;48.168;14.024;2023-03-01T13:21:49;13.10;48.90
38436;DHT22;24220;48.168;14.024;2023-03-01T13:29:49;13.00;49.20
38436;DHT22;24220;48.168;14.024;2023-03-01T13:32:27;13.00;49.80
38436;DHT22;24220;48.168;14.024;2023-03-01T13:37:43;12.90;49.70
38436;DHT22;24220;48.168;14.024;2023-03-01T13:42:47;12.90;49.70
38436;DHT22;24220;48.168;14.024;2023-03-01T13:48:29;12.90;49.90
38436;DHT22;24220;48.168;14.024;2023-03-01T13:51:27;12.80;50.00
38436;DHT22;24220;48.168;14.024;2023-03-01T13:53:56;12.80;50.00
38436;DHT22;24220;48.168;14.024;2023-03-01T13:56:35;12.80;50.10
38436;DHT22;24220;48.168;14.024;2023-03-01T13:59:14;12.80;50.00
38436;DHT22;24220;48.168;14.024;2023-03-01T14:01:42;12.80;50.00
38436;DHT22;24220;48.168;14.024;2023-03-01T14:07:18;12.80;50.00
38436;DHT22;24220;48.168;14.024;2023-03-01T14:09:54;12.80;50.00
38436;DHT22;24220;48.168;14.024;2023-03-01T14:12:42;12.80;49.70
38436;DHT22;24220;48.168;14.024;2023-03-01T14:15:32;12.80;50.40
38436;DHT22;24220;48.168;14.024;2023-03-01T14:18:05;12.80;49.90
38436;DHT22;24220;48.168;14.024;2023-03-01T14:20:39;12.80;49.90
38436;DHT22;24220;48.168;14.024;2023-03-01T14:23:18;12.80;49.70
38436;DHT22;24220;48.168;14.024;2023-03-01T14:25:51;12.70;49.60
38436;DHT22;24220;48.168;14.024;2023-03-01T14:28:28;12.70;49.90
38436;DHT22;24220;48.168;14.024;2023-03-01T14:30:59;12.70;49.70
38436;DHT22;24220;48.168;14.024;2023-03-01T14:33:32;12.70;49.70
38436;DHT22;24220;48.168;14.024;2023-03-01T14:38:43;12.60;49.70
38436;DHT22;24220;48.168;14.024;2023-03-01T14:41:24;12.60;49.60
38436;DHT22;24220;48.168;14.024;2023-03-01T14:43:57;12.60;49.90
38436;DHT22;24220;48.168;14.024;2023-03-01T14:46:40;12.50;49.80
38436;DHT22;24220;48.168;14.024;2023-03-01T14:49:23;12.50;49.50
38436;DHT22;24220;48.168;14.024;2023-03-01T14:52:04;12.50;49.70
38436;DHT22;24220;48.168;14.024;2023-03-01T14:54:48;12.50;49.90
38436;DHT22;24220;48.168;14.024;2023-03-01T14:57:21;12.50;50.00
38436;DHT22;24220;48.168;14.024;2023-03-01T14:59:55;12.40;49.80
38436;DHT22;24220;48.168;14.024;2023-03-01T15:02:26;12.50;50.00
38436;DHT22;24220;48.168;14.024;2023-03-01T15:04:56;12.50;49.80
38436;DHT22;24220;48.168;14.024;2023-03-01T15:07:29;12.50;50.10
38436;DHT22;24220;48.168;14.024;2023-03-01T15:09:59;12.40;50.20
38436;DHT22;24220;48.168;14.024;2023-03-01T15:14:56;12.40;50.20
38436;DHT22;24220;48.168;14.024;2023-03-01T15:17:36;12.40;50.00
38436;DHT22;24220;48.168;14.024;2023-03-01T15:20:18;12.40;50.10
38436;DHT22;24220;48.168;14.024;2023-03-01T15:22:48;12.40;50.30
38436;DHT22;24220;48.168;14.024;2023-03-01T15:25:18;12.40;50.10
38436;DHT22;24220;48.168;14.024;2023-03-01T15:27:48;12.40;50.40
38436;DHT22;24220;48.168;14.024;2023-03-01T15:30:23;12.30;50.40
38436;DHT22;24220;48.168;14.024;2023-03-01T15:33:18;12.30;50.40
38436;DHT22;24220;48.168;14.024;2023-03-01T15:35:50;12.30;50.30
38436;DHT22;24220;48.168;14.024;2023-03-01T15:38:32;12.30;50.40
38436;DHT22;24220;48.168;14.024;2023-03-01T15:41:02;12.30;50.60
38436;DHT22;24220;48.168;14.024;2023-03-01T15:43:44;12.30;50.60
38436;DHT22;24220;48.168;14.024;2023-03-01T15:46:33;12.30;50.40
38436;DHT22;24220;48.168;14.024;2023-03-01T15:52:34;12.30;50.40
38436;DHT22;24220;48.168;14.024;2023-03-01T15:55:19;12.30;50.40
38436;DHT22;24220;48.168;14.024;2023-03-01T15:57:56;12.20;50.40
38436;DHT22;24220;48.168;14.024;2023-03-01T16:00:28;12.20;50.50
38436;DHT22;24220;48.168;14.024;2023-03-01T16:02:56;12.20;50.60
38436;DHT22;24220;48.168;14.024;2023-03-01T16:05:27;12.20;50.80
38436;DHT22;24220;48.168;14.024;2023-03-01T16:07:58;12.10;50.60
38436;DHT22;24220;48.168;14.024;2023-03-01T16:10:25;12.10;50.70
38436;DHT22;24220;48.168;14.024;2023-03-01T16:12:53;12.10;50.70
38436;DHT22;24220;48.168;14.024;2023-03-01T16:15:30;12.10;50.50
38436;DHT22;24220;48.168;14.024;2023-03-01T16:17:59;12.10;50.50
38436;DHT22;24220;48.168;14.024;2023-03-01T16:20:30;12.10;50.60
38436;DHT22;24220;48.168;14.024;2023-03-01T16:23:04;12.10;50.50
38436;DHT22;24220;48.168;14.024;2023-03-01T16:25:33;12.00;50.40
38436;DHT22;24220;48.168;14.024;2023-03-01T16:28:02;12.00;50.40
38436;DHT22;24220;48.168;14.024;2023-03-01T16:30:38;12.00;50.50
38436;DHT22;24220;48.168;14.024;2023-03-01T16:33:11;12.00;50.50
38436;DHT22;24220;48.168;14.024;2023-03-01T16:35:59;12.00;50.60
38436;DHT22;24220;48.168;14.024;2023-03-01T16:38:28;11.90;50.60
38436;DHT22;24220;48.168;14.024;2023-03-01T16:40:55;11.90;50.70
38436;DHT22;24220;48.168;14.024;2023-03-01T16:43:23;11.90;50.70
38436;DHT22;24220;48.168;14.024;2023-03-01T16:45:51;11.90;50.80
38436;DHT22;24220;48.168;14.024;2023-03-01T16:48:19;11.80;50.70
38436;DHT22;24220;48.168;14.024;2023-03-01T16:50:56;11.80;50.50
38436;DHT22;24220;48.168;14.024;2023-03-01T16:53:23;11.80;50.70
38436;DHT22;24220;48.168;14.024;2023-03-01T16:55:58;11.70;50.60
38436;DHT22;24220;48.168;14.024;2023-03-01T16:58:26;11.70;50.60
38436;DHT22;24220;48.168;14.024;2023-03-01T17:00:55;11.70;50.40
38436;DHT22;24220;48.168;14.024;2023-03-01T17:03:24;11.60;50.50
38436;DHT22;24220;48.168;14.024;2023-03-01T17:05:53;11.60;50.70
38436;DHT22;24220;48.168;14.024;2023-03-01T17:08:21;11.50;50.60
38436;DHT22;24220;48.168;14.024;2023-03-01T17:10:51;11.50;50.70
38436;DHT22;24220;48.168;14.024;2023-03-01T17:13:18;11.40;50.60
38436;DHT22;24220;48.168;14.024;2023-03-01T17:15:45;11.40;50.80
38436;DHT22;24220;48.168;14.024;2023-03-01T17:18:16;11.40;50.90
38436;DHT22;24220;48.168;14.024;2023-03-01T17:20:45;11.40;50.80
38436;DHT22;24220;48.168;14.024;2023-03-01T17:23:13;11.40;50.90
38436;DHT22;24220;48.168;14.024;2023-03-01T17:25:43;11.30;51.50
38436;DHT22;24220;48.168;14.024;2023-03-01T17:28:15;11.30;51.00
38436;DHT22;24220;48.168;14.024;2023-03-01T17:30:46;11.30;51.10
38436;DHT22;24220;48.168;14.024;2023-03-01T17:33:17;11.30;51.20
38436;DHT22;24220;48.168;14.024;2023-03-01T17:35:45;11.20;51.10
38436;DHT22;24220;48.168;14.024;2023-03-01T17:38:14;11.20;51.30
38436;DHT22;24220;48.168;14.024;2023-03-01T17:40:42;11.20;51.20
38436;DHT22;24220;48.168;14.024;2023-03-01T17:43:14;11.20;51.30
38436;DHT22;24220;48.168;14.024;2023-03-01T17:45:42;11.20;52.00
38436;DHT22;24220;48.168;14.024;2023-03-01T17:48:16;11.20;51.50
38436;DHT22;24220;48.168;14.024;2023-03-01T17:50:45;11.20;51.50
38436;DHT22;24220;48.168;14.024;2023-03-01T17:53:17;11.20;51.70
38436;DHT22;24220;48.168;14.024;2023-03-01T17:55:45;11.20;51.70
38436;DHT22;24220;48.168;14.024;2023-03-01T17:58:18;11.20;51.60
38436;DHT22;24220;48.168;14.024;2023-03-01T18:00:49;11.20;51.70
38436;DHT22;24220;48.168;14.024;2023-03-01T18:03:17;11.20;51.70